Weather observations for the past three days for
Elkhart, Elkhart-Morton County Airport
Metric (Imperial)
Date Time (cdt) Wind (kph) Vis. (km) Weather Sky Cond. Temperature (ºC) Relative Humidity Wind Chill (°C) Heat Index (°C) Pressure Precipitation (cm)
Air Dwpt 6 hour altimeter (cm) sea level (mb) 1 hr 3 hr 6 hr
Max. Min.
10 14:15 NE 28 16.09 Overcast BKN041 BKN047 OVC060 17.7 6 46% 76.96 0.0
10 13:55 NE 30 16.09 Overcast BKN039 OVC060 18.4 6.4 46% 76.96 0.0
10 13:35 NE 22 G 39 16.09 Overcast BKN037 OVC060 17.7 6.8 49% 76.94 0.0
10 13:15 N 22 16.09 Overcast SCT035 OVC060 17.7 7.1 50% 76.96 0.0
10 12:55 N 31 G 41 16.09 Overcast SCT033 OVC060 17.9 7.1 19 11.4 49% 76.96 0.0
10 12:35 NE 24 G 39 16.09 Overcast BKN030 BKN060 OVC085 18.1 7.1 49% 76.99 0.0
10 12:15 NE 28 G 37 16.09 Mostly Cloudy BKN028 17.5 7.6 52% 76.96 0.0
10 11:55 NE 28 G 41 16.09 Partly Cloudy SCT024 16.2 7.5 57% 76.96 0.0
10 11:35 NE 24 16.09 Mostly Cloudy BKN020 16 7.8 58% 76.96 0.0
10 11:15 NE 28 16.09 Overcast OVC020 16 7.9 59% 76.96 0.0
10 10:55 NE 24 16.09 Mostly Cloudy BKN020 BKN024 14.7 7.8 64% 76.94 0.0
10 10:35 NE 26 16.09 Mostly Cloudy SCT020 BKN075 14.5 7.6 64% 76.94 0.0
10 10:15 NE 26 16.09 Overcast SCT020 OVC065 14.2 7.6 65% 76.91 0.0
10 09:55 NE 30 16.09 Overcast BKN065 OVC075 14.1 7.9 67% 76.89 0.0
10 09:35 NE 24 16.09 Mostly Cloudy SCT065 BKN095 13 7.6 70% 76.86 0.0
10 09:15 NE 30 16.09 Mostly Cloudy BKN042 BKN095 12.9 7.6 70% 76.86 0.0
10 08:55 NE 31 16.09 Mostly Cloudy BKN042 BKN100 12.9 7.3 69% 76.84 0.0
10 08:35 NE 30 16.09 Partly Cloudy SCT040 SCT100 12.1 7.1 72% 76.84 0.0
10 08:15 NE 31 G 44 16.09 Overcast OVC040 11.7 7.5 76% 76.84 0.0
10 07:55 N 35 G 44 16.09 Overcast and Breezy OVC038 11.6 7.5 76% 76.81 0.0
10 07:35 N 37 16.09 Overcast and Breezy OVC036 11.9 5.1 63% 76.76 0.0
10 07:15 N 22 16.09 Overcast OVC034 11.4 5 65% 76.76 0.0
10 06:55 N 24 16.09 Overcast OVC032 11.4 5 15.9 11.2 65% 76.73 0.0 0.03
10 06:35 N 24 16.09 Overcast BKN032 OVC040 11.5 5 65% 76.71 0.0
10 06:15 N 24 G 35 16.09 Overcast OVC037 11.6 5.2 65% 76.63 0.0
10 05:55 N 26 G 33 16.09 Overcast BKN035 OVC120 11.4 5.5 67% 76.58 0.0
10 05:35 NE 22 16.09 Mostly Cloudy BKN120 11.3 5.7 69% 76.56 0.0
10 05:15 NE 22 16.09 Fair CLR 11.3 5.7 69% 76.56 0.0
10 04:55 NE 31 G 41 16.09 Partly Cloudy SCT120 11.4 5.9 69% 76.48 0.0
10 04:35 NE 39 G 48 16.09 Partly Cloudy and Breezy SCT120 11.5 6.1 70% 76.48 0.0
10 04:15 NE 31 G 43 16.09 Partly Cloudy SCT120 11.6 6.6 72% 76.45 0.0
10 03:55 NE 35 G 44 16.09 Partly Cloudy and Breezy SCT120 11.6 7 74% 76.43 0.0 0.03
10 03:35 NE 41 G 50 16.09 Partly Cloudy and Breezy SCT120 11.7 7.6 76% 76.4 0.0
10 03:15 NE 41 16.09 Partly Cloudy and Breezy SCT120 11.5 8.5 82% 76.38 0.0
10 02:55 NE 33 16.09 Fair and Breezy CLR 11.6 9.2 85% 76.33 0.0 0.03
10 02:35 NE 37 16.09 Light Rain and Breezy SCT032 SCT049 BKN065 12 9.6 85% 76.33 0.0 0.03
10 02:15 NE 39 G 61 16.09 Light Rain and Breezy SCT022 BKN065 OVC090 12.7 10.2 85% 76.38 0.0
10 01:55 NE 41 G 59 16.09 Overcast and Breezy BKN090 OVC110 15 9.3 69% 76.35 0.0
10 01:35 N 37 G 50 16.09 Overcast and Breezy OVC110 15.5 7.7 60% 76.33 0.0
10 01:15 N 30 16.09 Mostly Cloudy BKN120 15.8 7.2 57% 76.3 0.0
10 00:55 NW 20 16.09 Partly Cloudy SCT120 15.7 7.3 30.1 15.7 58% 76.2 0.0
10 00:35 NE 7 16.09 Partly Cloudy SCT120 16.2 7.3 56% 76.15 0.0
10 00:15 NE 15 16.09 Fair CLR 16.5 7.2 54% 76.12 0.0
09 23:55 NE 20 16.09 Fair CLR 16.7 7.3 54% 76.1 0.0
09 23:35 NE 15 16.09 Fair CLR 17.2 7.4 53% 76.15 0.0
09 23:15 NE 15 16.09 Fair CLR 17.3 7.5 53% 76.15 0.0
09 22:55 NE 24 16.09 Fair CLR 18 7.4 50% 76.1 0.0
09 22:35 N 30 G 39 16.09 Fair CLR 18.9 7.2 47% 76.07 0.0
09 22:15 N 24 16.09 Fair CLR 20 4.9 37% 76 0.0
09 21:55 N 33 G 44 16.09 Fair and Breezy CLR 21.6 2 27% 75.95 0.0
09 21:35 N 26 16.09 Fair CLR 21.6 1.9 27% 75.9 0.0
09 21:15 N 22 16.09 Fair CLR 22 1.8 26% 75.87 0.0
09 20:55 NE 20 16.09 Fair CLR 22.7 1.7 25% 75.84 0.0
09 20:35 NE 19 16.09 Fair CLR 23.8 1.5 23% 75.82 0.0
09 20:15 NE 26 16.09 Fair CLR 26.1 0.6 19% 26 75.77 0.0
09 19:55 N 19 16.09 Fair CLR 27.6 -1.9 14% 26 75.77 0.0
09 19:35 N 22 16.09 Fair CLR 28.7 -1.1 14% 27 75.74 0.0
09 19:15 N 22 16.09 Fair CLR 30 -2.9 12% 28 75.74 0.0
09 18:55 N 24 G 31 16.09 Fair CLR 29.9 -3 32.7 28.4 12% 28 75.74 0.0
09 18:35 NW 20 16.09 Fair CLR 30.4 -2.3 12% 28 75.74 0.0
09 18:15 NE 30 G 41 16.09 Fair CLR 31 -1.7 12% 29 75.74 0.0
09 17:55 NW 22 G 37 16.09 Fair CLR 31.3 -2.5 11% 29 75.72 0.0
09 17:35 NW 30 G 43 16.09 Fair CLR 31.8 -1.7 11% 30 75.72 0.0
09 17:15 NW 17 G 39 16.09 Fair CLR 31.5 -1.1 12% 29 75.72 0.0
09 16:55 N 19 G 41 16.09 Fair CLR 31.7 -0.7 12% 30 75.72 0.0
09 16:35 N 26 G 35 16.09 Fair CLR 32.5 0 12% 30 75.72 0.0
09 16:15 NW 15 16.09 Partly Cloudy SCT120 31.3 0.5 14% 29 75.74 0.0
09 15:55 N 28 G 44 16.09 Mostly Cloudy BKN120 32 1.8 15% 30 75.72 0.0
09 15:35 W 13 16.09 Partly Cloudy SCT120 30.9 1.8 15% 29 75.74 0.0
09 15:15 S 7 16.09 Fair CLR 30.5 1.9 16% 29 75.77 0.0
09 14:55 S 11 16.09 Partly Cloudy SCT034 SCT120 29.1 2.2 18% 27 75.79 0.0
09 14:35 SW 15 G 37 16.09 Fair CLR 29.1 1.8 17% 27 75.82 0.0
09 14:15 SW 7 16.09 Fair CLR 30.2 2.5 17% 28 75.82 0.0
09 13:55 SW 20 G 35 16.09 Fair CLR 29.7 2.5 17% 28 75.84 0.0
09 13:35 SW 30 G 39 16.09 Fair CLR 30.1 2.9 18% 28 75.87 0.0
09 13:10 SW 31 G 43 16.09 Fair CLR 29.3 3 19% 28 75.92 0.0
09 12:55 SW 35 G 50 16.09 Fair and Breezy CLR 29 3.1 29.6 11.2 19% 27 75.92 0.0
09 12:35 SW 28 16.09 Fair CLR 28.7 3.3 20% 27 75.95 0.0
09 12:15 SW 30 G 48 16.09 Fair CLR 28 3.3 20% 27 75.97 0.0
09 11:55 SW 28 G 39 16.09 Fair CLR 27.5 3.5 21% 26 75.97 0.0
09 11:35 SW 33 G 52 16.09 Fair and Breezy CLR 26.6 3.3 22% 26 76 0.0
09 11:15 SW 31 G 50 16.09 Fair CLR 26.3 4.3 24% 26 76 0.0
09 10:55 SW 41 16.09 Fair and Breezy CLR 25.1 4.6 27% 25 76 0.0
09 10:15 SW 37 G 46 16.09 Fair and Breezy CLR 23.1 5.4 32% 76.05 0.0
09 09:55 SW 35 16.09 Fair and Breezy CLR 22.4 5.7 34% 76.07 0.0
09 09:35 SW 31 G 44 16.09 Fair CLR 21.5 5.3 35% 76.1 0.0
09 09:15 SW 31 16.09 Fair CLR 20.3 4.8 36% 76.1 0.0
09 08:55 SW 24 16.09 Fair CLR 18.9 4.7 39% 76.1 0.0
09 08:35 SW 30 16.09 Fair CLR 17.4 4.3 42% 76.12 0.0
09 08:15 SW 19 16.09 Fair CLR 16 4.4 46% 76.12 0.0
09 07:55 SW 20 G 30 16.09 Fair CLR 14.3 4.2 51% 76.12 0.0
09 07:35 SW 24 16.09 Fair CLR 12.9 4 55% 76.12 0.0
09 07:15 SW 24 16.09 Fair CLR 11.6 3.7 59% 76.12 0.0
09 06:55 SW 26 16.09 Fair CLR 11.2 3.5 12.7 9.1 59% 76.12 0.0
09 06:35 SW 30 16.09 Fair CLR 11.3 3.6 59% 76.12 0.0
09 06:15 SW 26 16.09 Fair CLR 11.3 3.6 59% 76.12 0.0
09 05:55 SW 22 16.09 Fair CLR 11.1 3.6 60% 76.1 0.0
09 05:35 SW 19 16.09 Fair CLR 11.2 3.6 60% 76.1 0.0
09 05:15 SW 17 16.09 Fair CLR 12.1 3.9 58% 76.1 0.0
09 04:55 S 17 16.09 Fair CLR 12.4 4 57% 76.1 0.0
09 04:35 S 15 16.09 Fair CLR 12.3 4.1 58% 76.07 0.0
09 04:15 S 15 16.09 Fair CLR 12.5 3.8 56% 76.1 0.0
09 03:55 S 17 16.09 Partly Cloudy SCT110 12.4 3.9 56% 76.1 0.0
09 03:35 S 17 16.09 Fair CLR 12.1 3.8 57% 76.12 0.0
09 03:15 S 17 16.09 Fair CLR 12.1 3.8 57% 76.12 0.0
09 02:55 S 19 16.09 Fair CLR 11 3.9 62% 76.12 0.0
09 02:35 S 17 16.09 Fair CLR 10.5 3.4 62% 76.12 0.0
09 02:15 S 19 16.09 Fair CLR 9.6 3.4 66% 7 76.15 0.0
09 01:55 S 15 16.09 Fair CLR 9.6 3.1 64% 8 76.12 0.0
09 01:35 SE 17 16.09 Fair CLR 10.6 3.5 62% 76.15 0.0
09 01:15 SE 17 16.09 Fair CLR 10 3.2 63% 8 76.15 0.0
09 00:55 SE 13 16.09 Fair CLR 10.5 3.1 25 10.4 60% 76.15 0.0
09 00:35 SE 15 16.09 Fair CLR 11.4 2.9 56% 76.17 0.0
09 00:15 SE 15 16.09 Fair CLR 13.4 3 50% 76.15 0.0
08 23:55 SE 15 16.09 Fair CLR 14.2 2.9 47% 76.17 0.0
08 23:35 E 15 16.09 Fair CLR 13.6 2.7 48% 76.17 0.0
08 23:15 E 15 16.09 Fair CLR 14.1 3.2 48% 76.15 0.0
08 22:55 E 13 16.09 Fair CLR 13.5 2.8 49% 76.12 0.0
08 22:35 E 13 16.09 Fair CLR 14.8 2.3 43% 76.12 0.0
08 22:15 E 15 16.09 Fair CLR 15.1 2.4 43% 76.1 0.0
08 21:55 E 11 16.09 Fair CLR 15.5 3.1 44% 76.1 0.0
08 21:35 E 13 16.09 Fair CLR 15.5 2.7 42% 76.07 0.0
08 21:15 NE 15 16.09 Fair CLR 16.4 3 41% 76.02 0.0
08 20:55 NE 17 16.09 Fair CLR 18.2 2.8 36% 76.02 0.0
08 20:35 NE 17 16.09 Fair CLR 20 2.5 31% 76.02 0.0
08 20:15 NE 19 16.09 Fair CLR 21.9 2 27% 76.02 0.0
08 19:55 NE 19 16.09 Fair CLR 23.1 1.9 25% 76 0.0
08 19:35 NE 24 16.09 Fair CLR 23.9 1.8 24% 25 76 0.0
08 19:15 N 30 G 35 16.09 Fair CLR 24.6 2.1 23% 25 76 0.0
08 18:55 N 26 G 35 16.09 Fair CLR 24.9 1.9 27.4 23.3 22% 25 76 0.0
08 18:35 NE 22 G 31 16.09 Fair CLR 25.6 1.7 21% 25 75.97 0.0
08 18:15 N 26 G 41 16.09 Fair CLR 25.8 0.6 19% 25 75.95 0.0
08 17:55 N 39 16.09 Fair and Breezy CLR 26.2 0.8 19% 26 75.97 0.0
08 17:35 NW 19 G 44 16.09 Fair CLR 26.2 0.6 19% 26 75.97 0.0
08 17:15 N 26 G 43 16.09 Fair CLR 26.7 2.6 21% 26 76 0.0
08 16:55 N 13 G 41 16.09 Fair CLR 26.1 1.9 21% 26 76 0.0
08 16:35 NW 28 G 48 16.09 Fair CLR 26.6 1.1 19% 26 76 0.0
08 16:15 N 28 G 43 16.09 Fair CLR 26.6 2.2 21% 26 76.02 0.0
08 15:55 N 28 G 37 16.09 Fair CLR 26.4 2.9 22% 26 76.02 0.0
08 15:35 N 24 G 48 16.09 Partly Cloudy SCT080 26.1 3.2 23% 26 76.05 0.0
08 15:15 N 20 G 41 16.09 Partly Cloudy SCT080 26.2 3.3 23% 26 76.05 0.0
08 14:55 NW 17 G 31 16.09 Fair CLR 25.3 4.1 25% 25 76.07 0.0
08 14:35 NE 17 G 33 16.09 Fair CLR 25.3 4.4 26% 25 76.07 0.0
08 14:15 N 20 G 44 16.09 Fair CLR 25.1 3.9 25% 25 76.1 0.0
08 13:35 N 22 G 39 16.09 Fair CLR 24.1 5.1 29% 25 76.1 0.0
08 13:15 N 30 G 41 16.09 Fair CLR 23.7 5.2 30% 76.12 0.0
08 12:55 N 30 G 37 16.09 Fair CLR 23.2 5.6 24 10.8 32% 76.12 0.0
08 12:15 N 33 G 41 16.09 Fair and Breezy CLR 23 5.3 32% 76.15 0.0
08 11:55 N 30 G 46 16.09 Fair CLR 22.9 5.3 32% 76.12 0.0
08 11:35 N 33 G 44 16.09 Fair and Breezy CLR 22.6 5 32% 76.12 0.0
08 11:15 N 33 16.09 Fair and Breezy CLR 22.4 4.7 32% 76.12 0.0
08 10:55 N 33 G 39 16.09 Fair and Breezy CLR 22.4 4.6 31% 76.1 0.0
08 10:35 N 37 G 43 16.09 Fair and Breezy CLR 21.9 4.7 33% 76.12 0.0
08 10:15 N 31 G 44 16.09 Fair CLR 20.9 5.1 36% 76.1 0.0
08 09:55 N 33 16.09 Fair and Breezy CLR 20.3 4.8 36% 76.1 0.0
08 09:35 N 31 16.09 Fair CLR 19.4 4.6 38% 76.07 0.0
08 09:15 N 24 G 30 16.09 Fair CLR 18.4 5 41% 76.07 0.0
08 08:55 N 28 16.09 Fair CLR 16.9 4.7 45% 76.07 0.0
08 08:35 N 28 16.09 Fair CLR 15.9 4.4 47% 76.05 0.0
08 08:15 N 24 16.09 Fair CLR 15.3 4 47% 76.05 0.0
08 07:55 N 24 G 33 16.09 Fair CLR 14.2 3.5 49% 76.02 0.0
08 07:35 N 17 16.09 Fair CLR 11.9 2.5 53% 76 0.0
08 07:15 NW 15 16.09 Fair CLR 11 1.6 53% 75.97 0.0
08 06:55 NW 20 16.09 Fair CLR 12.4 0.9 14.9 11.9 46% 75.95 0.0
08 06:35 W 24 16.09 Fair CLR 13.5 0.4 41% 75.95 0.0
08 06:15 W 19 16.09 Fair CLR 13.9 0.2 39% 75.92 0.0
08 05:55 W 19 16.09 Fair CLR 13.4 0.4 41% 75.92 0.0
08 05:35 W 20 16.09 Fair CLR 13.3 0.2 41% 75.92 0.0
08 05:15 W 15 16.09 Fair CLR 13.8 -0.1 39% 75.92 0.0
08 04:55 SW 26 16.09 Fair CLR 14.9 -0.5 35% 75.9 0.0
08 04:35 SW 30 16.09 Fair CLR 14.5 0.2 38% 75.9 0.0
08 04:15 SW 26 16.09 Fair CLR 14 0.9 41% 75.87 0.0
08 03:55 SW 28 16.09 Fair CLR 12.9 1.5 46% 75.9 0.0
08 03:35 W 26 16.09 Partly Cloudy SCT120 12.8 1.3 46% 75.9 0.0
08 03:15 SW 28 16.09 Partly Cloudy SCT120 14 0.2 39% 75.9 0.0
08 02:55 SW 30 16.09 Fair CLR 14.1 0.2 39% 75.9 0.0
08 02:35 SW 28 16.09 Fair CLR 12.7 0.8 44% 75.92 0.0
08 02:15 SW 24 16.09 Fair CLR 12.8 0.6 44% 75.95 0.0
08 01:55 SW 24 16.09 Fair CLR 13.5 0.8 42% 75.97 0.0
08 01:35 SW 24 16.09 Fair CLR 13 1 44% 76 0.0
08 01:15 SW 22 16.09 Fair CLR 12.5 1.1 46% 76 0.0
08 00:55 SW 22 16.09 Fair CLR 11.8 1.4 24.6 10.7 49% 76 0.0
08 00:35 SW 22 16.09 Fair CLR 11 1.9 54% 76.05 0.0
08 00:15 SW 19 16.09 Fair CLR 11.1 1.7 53% 76.05 0.0
07 23:55 SW 20 16.09 Fair CLR 11.5 1.9 52% 76.05 0.0
07 23:35 SW 20 16.09 Fair CLR 11.3 2.2 54% 76.05 0.0
07 23:15 SW 19 16.09 Fair CLR 11.4 2.6 55% 76.07 0.0
07 22:55 S 19 16.09 Fair CLR 12.2 2.9 53% 76.07 0.0
07 22:35 S 15 16.09 Fair CLR 11.7 2.7 54% 76.07 0.0
07 22:15 S 19 16.09 Fair CLR 13.5 1.8 45% 76.07 0.0
07 21:55 S 19 16.09 Fair CLR 14 1.8 44% 76.05 0.0
07 21:35 S 19 16.09 Fair CLR 14.9 2.1 42% 76.02 0.0
07 21:15 S 19 16.09 Fair CLR 15 3.1 45% 76.02 0.0
07 20:55 S 19 16.09 Fair CLR 16.3 2.9 41% 76 0.0
07 20:35 S 20 16.09 Fair CLR 18 3.1 37% 76 0.0
07 20:15 S 9 16.09 Fair CLR 19.9 0.8 28% 76 0.0
07 19:55 S 11 16.09 Fair CLR 22.5 -4.3 16% 76 0.0
07 19:35 S 11 16.09 Fair CLR 23.4 -5.4 14% 75.97 0.0
07 19:15 SW 13 16.09 Fair CLR 24 -6 13% 24 75.97 0.0
07 18:55 S 13 16.09 Fair CLR 24.1 -6.1 25.9 20.7 13% 24 76 0.0
07 18:15 S 7 16.09 Fair CLR 24.4 -6.8 12% 24 76 0.0
07 17:55 S 7 16.09 Fair CLR 24.5 -6.8 12% 24 76 0.0
07 17:35 SW 9 16.09 Fair CLR 25.1 -6.8 11% 25 76 0.0
07 16:55 SW 7 16.09 Fair CLR 24.9 -7.6 11% 24 76.02 0.0
07 16:35 SW 9 16.09 Fair CLR 25.2 -6.6 12% 25 76.05 0.0
07 16:15 NW 9 16.09 Fair CLR 24.2 -7.2 12% 24 76.1 0.0
07 15:55 Calm 16.09 Fair CLR 23.9 -7.6 12% 24 76.1 0.0
07 15:35 SE 11 8.05 Fair with Haze CLR 24.2 -6.9 12% 24 76.12 0.0
07 15:15 W 15 16.09 Fair CLR 23.9 -6.8 12% 24 76.15 0.0
07 14:55 W 13 16.09 Fair CLR 23.8 -5.4 14% 76.17 0.0
07 14:35 W 15 16.09 Fair CLR 23.5 -5.7 14% 76.2 0.0
Date Time (cdt) Wind (kph) Vis. (km) Weather Sky Cond. Air Dwpt Max. Min. Relative Humidity Wind Chill (°C) Heat Index (°C) altimeter (cm) sea level (mb) 1 hr 3 hr 6 hr
6 hour
Temperature (ºC) Pressure Precipitation (cm)